METAR AND TAF INFORMATION
METAR FOR LSZA
ADDS - METARS form results

(1119 UTC 23 May 2019)
Data provider http://aviationweather.gov/metar/data/
 
METAR text: LSZA 231050Z 20006KT 160V220 9999 FEW060 23/08 Q1015 NOSIG
Conditions at: LSZA (LUGANO (PVT/AUT), CH) observed 1050 UTC 23 May 2019
Temperature: 23.0°C (73°F)
Dewpoint: 8.0°C (46°F) [RH = 38%]
Pressure (altimeter): 29.97 inches Hg (1015.0 mb)
Winds: from the SSW (200 degrees) at 7 MPH (6 knots; 3.1 m/s)
Visibility: 6 or more miles (10+ km)
Ceiling: at least 12,000 feet AGL
Clouds: few clouds at 6000 feet AGL
Weather: no significant weather observed at this time

METAR text: LSZA 231020Z 19005KT 9999 FEW055 22/07 Q1016 NOSIG
Conditions at: LSZA (LUGANO (PVT/AUT), CH) observed 1020 UTC 23 May 2019
Temperature: 22.0°C (72°F)
Dewpoint: 7.0°C (45°F) [RH = 38%]
Pressure (altimeter): 30.00 inches Hg (1016.0 mb)
Winds: from the S (190 degrees) at 6 MPH (5 knots; 2.6 m/s)
Visibility: 6 or more miles (10+ km)
Ceiling: at least 12,000 feet AGL
Clouds: few clouds at 5500 feet AGL
Weather: no significant weather observed at this time

Forecast for: LSZA (LUGANO (PVT/AUT), CH)
Text: TAF LSZA 230825Z 2309/2318 VRB03KT CAVOK
Forecast period: 0900 to 1800 UTC 23 May 2019
Forecast type: FROM: standard forecast or significant change
Winds: variable direction winds at 3 MPH (3 knots; 1.5 m/s)
Visibility: 6 or more miles 10+ km)
Ceiling: unknown
Clouds: missing
Weather: NSW  (no significant weather)
Text: BECMG 2309/2312 19010KT 9999 FEW060
Forecast period: 0900 to 1500 UTC 23 May 2019
Forecast type: BECOMING: Conditions expected to become as follows by 1200 UTC 23 May 2019
Winds: from the S (190 degrees) at 12 MPH (10 knots; 5.1 m/s)
Visibility: 6 or more miles 10+ km)
Ceiling: at least 12,000 feet AGL
Clouds: few clouds at 6000 feet AGL
Weather: NSW  (no significant weather)
Text: PROB40 2313/2317 SCT060TCU
Forecast period: 1300 to 1700 UTC 23 May 2019
Forecast type: PROBABLE: 40 percent likelihood of the following during this time
Visibility: missing
Ceiling: at least 12,000 feet AGL
Clouds: scattered clouds at 6000 feet AGL
Weather: no significant weather forecast for this period
Text: BECMG 2315/2318 VRB03KT
Forecast period: 1500 to 1800 UTC 23 May 2019
Forecast type: BECOMING: Conditions expected to become as follows by 1800 UTC 23 May 2019
Winds: variable direction winds at 3 MPH (3 knots; 1.5 m/s)
Visibility: 6 or more miles 10+ km)
Ceiling: at least 12,000 feet AGL
Clouds: few clouds at 6000 feet AGL
Weather: NSW  (no significant weather)

AIRPORT MAP

RUNWAY INFORMATION
Runway 01 Runway length 4429 ft Runway width 98 ft
Runway elevation 896 ft Runway displaced threshold 361 ft Runway heading 19
Runway 19 Runway length 4429 ft Runway width 98 ft
Runway elevation 915 ft Runway displaced threshold 672 ft Runway heading 199

AIRPORT FREQUENCIES
Type ATIS Name ATIS Frequency 121.175 MHZ
Type GND Name GND Frequency 121.775 MHZ
Type TWR Name TWR Frequency 120.25 MHZ

AIRPORT NEAR NAVIGATION AIDS